EST,Max TemperatureF,Mean TemperatureF,Min TemperatureF,Max Dew PointF,MeanDew PointF,Min DewpointF,Max Humidity, Mean Humidity, Min Humidity, Max Sea Level PressureIn, Mean Sea Level PressureIn, Min Sea Level PressureIn, Max VisibilityMiles, Mean VisibilityMiles, Min VisibilityMiles, Max Wind SpeedMPH, Mean Wind SpeedMPH, Max Gust SpeedMPH,PrecipitationIn, CloudCover, Events, WindDirDegrees
2013-1-1,59,54,50,52,46,39,90,73,53,30.15,30.06,29.98,10,9,5,16,7,20,0.00,6,Rain,250
2013-1-2,54,49,43,52,46,36,94,85,74,30.22,30.03,29.90,10,7,1,15,5,21,0.19,8,Rain,32
2013-1-3,43,40,33,36,33,29,85,73,66,30.28,30.21,30.17,10,9,6,10,7,,0.05,5,Rain,22
2013-1-4,52,40,28,31,27,24,89,65,35,30.34,30.28,30.22,10,8,5,13,4,,0.00,0,,280
2013-1-5,51,39,27,32,26,21,82,63,33,30.41,30.35,30.30,10,10,10,8,4,,0.00,0,,286
2013-1-6,48,44,41,43,40,33,87,80,63,30.29,30.17,30.10,10,9,2,8,2,,0.01,7,Rain,290
2013-1-7,55,46,37,43,34,30,87,65,38,30.46,30.35,30.16,10,10,7,13,8,,0.00,1,,25
2013-1-8,64,50,35,47,39,30,93,74,52,30.45,30.41,30.37,10,9,1,7,3,,0.00,2,,37
2013-1-9,73,56,39,55,47,37,93,78,51,30.44,30.40,30.37,10,8,2,6,1,,0.00,4,,329
2013-1-10,66,56,46,52,45,31,94,76,30,30.53,30.45,30.42,10,5,0,13,2,,0.00,2,Fog,53
2013-1-11,70,59,48,63,56,36,94,82,60,30.44,30.26,30.17,10,6,0,12,5,16,0.36,4,Rain,156
2013-1-12,77,67,57,62,58,54,94,83,60,30.19,30.15,30.12,10,7,0,12,5,,0.00,2,,241
2013-1-13,75,63,51,60,54,50,94,86,55,30.19,30.14,30.11,10,4,0,10,1,,0.01,1,,182
2013-1-14,78,66,55,61,58,54,93,75,50,30.21,30.17,30.13,10,10,7,14,6,21,0.01,1,,211
2013-1-15,68,62,55,59,56,53,94,82,68,30.21,30.15,30.09,10,7,0,10,5,22,0.00,6,Fog,43
2013-1-16,79,67,55,63,57,53,94,80,48,30.08,30.03,29.97,10,6,0,15,4,24,0.00,4,,193
2013-1-17,69,56,42,61,52,37,94,84,68,30.01,29.94,29.83,10,6,0,21,5,31,0.76,5,Fog-Rain,360
2013-1-18,50,43,36,38,31,24,87,68,36,30.55,30.36,30.00,10,10,9,20,12,28,0.01,3,Rain,359
2013-1-19,60,45,30,40,32,25,89,67,38,30.53,30.40,30.22,10,10,9,8,3,,0.00,0,,360
2013-1-20,66,54,39,43,37,30,86,63,26,30.20,30.11,30.01,10,10,10,16,5,22,0.00,0,,257
2013-1-21,64,48,33,43,36,30,89,63,40,30.10,30.01,29.91,10,10,10,15,3,23,0.00,0,,219
2013-1-22,48,42,31,28,15,8,60,36,22,30.22,30.14,29.98,10,9,7,9,7,20,0.00,1,,330
2013-1-23,41,34,26,24,13,6,68,43,27,30.37,30.26,30.14,10,9,7,8,4,,0.00,1,,326
2013-1-24,50,39,28,34,22,8,76,53,37,30.51,30.24,30.01,10,8,7,22,10,32,0.00,3,,335
2013-1-25,36,29,22,29,20,8,93,67,43,30.50,30.29,30.12,10,7,2,13,5,,0.00,6,,354
2013-1-26,39,34,28,32,27,24,88,82,70,30.42,30.27,30.13,8,7,4,9,6,,0.00,5,,357
2013-1-27,43,36,28,27,25,21,88,72,47,30.61,30.53,30.42,10,7,3,14,7,18,0.00,3,,26
2013-1-28,57,42,28,54,41,25,100,80,59,30.53,30.38,30.28,10,7,0,8,4,,0.00,6,Fog,235
2013-1-29,75,63,51,56,52,47,94,81,46,30.28,30.22,30.15,10,6,0,15,7,23,0.00,2,Fog,237
2013-1-30,73,66,60,61,59,57,93,76,62,30.14,29.93,29.62,10,10,6,24,12,40,0.00,4,,189
2013-1-31,69,54,39,63,40,20,88,61,27,30.09,29.79,29.53,10,8,1,36,20,44,0.30,4,Rain,251